Jamestown, CA

9:52 AM PDT on June 03, 2015 (GMT -0700)
Modesto City-County-Sham | | Change Station
CLOSE
Current Station
Airport
Location: Modesto,
Elevation: 95 ft
Nearby Weather Stations

Elev 95 ft 37.62 °N, 120.95 °W | Updated 59 minutes ago

Clear
Clear
68 °F
Feels Like 68 °F
N
6
Wind Variable Wind from NNW

Today
High -- | Low -- °F
--% Chance of Precip.
Yesterday
High -- | Low -- °F
Precip. -- in
5:40 AM 8:19 PM
Full, 99% visible
Pressure 29.91 in
Visibility 10.0 miles
Clouds Clear
Dew Point 47 °F
Humidity 47%
Rainfall 0.00 in
Snow Depth Not available.
UV 4 out of 12
Pollen 6.70 out of 12
Air Quality Not available.
Flu Activity Sporadic
METAR KMOD 031553Z 33005KT 10SM CLR 20/08 A2991 RMK AO2 SLP126 T02000083

More Conditions Fewer Conditions

Pressure 29.91 in
Visibility 10.0 miles
Clouds Clear
Dew Point 47 °F
Humidity 47%
Rainfall 0.00 in
Snow Depth Not available.
UV 4 out of 12
Pollen 6.70 out of 12
Air Quality Not available.
Flu Activity Sporadic
METAR KMOD 031553Z 33005KT 10SM CLR 20/08 A2991 RMK AO2 SLP126 T02000083

More Conditions Fewer Conditions

10-Day Weather Forecast

×

Almanac

Astronomy

Jun. 03, 2015 Rise Set
Actual Time
Civil Twilight
Nautical Twilight
Astronomical Twilight
Moon
Length of Visible Light
Length of Day
Tomorrow will be .
, % of the Moon is Illuminated

Today's Extremes

State Highs State Lows

Community

WunderPhotos

Upload Photos

1,826,256 photos uploaded!

WunderBlogs® & News

Nearby

Air Quality

  Air Quality AQ Index Pollutant
Not available.

Snow Depth

Station Depth Elevation

Earthquake Activity

City Distance Mag. Time & Date
Minimum magnitude displayed is 2.5.

Coastal Water Temperatures

Place Temperature

Stations

Nearby Weather Stations

Station Location Temp. Windchill Dew Point Humidity Wind Precip. Elev Updated Type